Pagrindinis puslapis
METAR-TAF:

METAR-TAF

Oro uostai :

Suleimanija, Irakas

platuma: 35-33-39N, ilguma: 45-18-52E, Aukštis: 760 m

Dabartinis oras

Ataskaita buvo paskelbta 49 minutes, ne 19:00 UTC
Vėjas 6 kt iš Šiaurės/Šiaurės Vakarų
Temperatūra 7°C
Drėgmė 66%
Slėgis 1019 hPa
Matomumas 10 km arba daugiau
nėra debesų žemiau 1500 m ir nėra kamuolinių lietaus debesų

METAR: ORSU 121900Z 33006KT CAVOK 07/01 Q1019

Laikas: 22:49 (19:49 UTC)

Prognozė

Ataskaita buvo paskelbta 2 valandos ir 49 minutes, ne 17:00 UTC
Prognozė galioja nuo 12 metu 18 UTC su 13 metu 18 UTC
Vėjas 6 kt iš Šiaurės Vakarų
Matomumas 10 km arba daugiau
nėra debesų žemiau 1500 m ir nėra kamuolinių lietaus debesų
Tapsmas
nuo 13 metu 08 UTC su 13 metu 10 UTC
Vėjas 14 kt iš Vakarų/Pietvakarių
Matomumas 10 km arba daugiau
Mažai debesys ne aukštis 4500 ft
Išsisklaidę debesys ne aukštis 8000 ft

TAF: ORSU 121700Z 1218/1318 32006KT CAVOK BECMG 1308/1310 24014KT 9999 FEW045 SCT080

Orai ataskaitas ir orų prognozės (METAR, TAF).

turimą stotys yra geltonos ir raudonos taškus žemėlapyje.

Perkelti pele per norėdami pamatyti stoties vardą.

Tada spustelėkite, norėdami matyti oro stebėjimo ir prognozės.

Norėdami pakeisti žemėlapį: spustelėkite ant žalios mygtukų su juodo kryžiaus žemyn,; žalią mygtuką su brūkšneliu, jei norite nutolinti; arba žalių rodyklių gretimoms žemėlapius.


METAR-TAF: